Historyczne dane pomiarowe

Dodano dane terminowe – wersja testowa.

Dane z okresu 1951-2019

Wersja bazy: 1.34 [2019-03-16, lista zmian], aktualizacja planowana na 2019-04-15

Dane meteo z obszaru Polski uzyskane na podstawie danych udostępnionych przez Instytut Meteorologii i Gospodarki Wodnej – Państwowy Instytut Badawczy.

 

Wybierz Datę:    

       

TemperaturaWilgotnośćWiatrCiśnienieOpadyŚniegCzas trwania zjawisk
 Stacja t tx tn tng RH VA  wxwx mslp ppp RRR   cm mm wxwxwxwxwxwxwx
1972-05-15 14.2 18.3 10.1 6.9 87.3- 8.0 1.0---- 1.4------------
1972-05-16 17.2 22.1 13.3 11.2 84.5- 8.0 2.0---- 3.8------------
1972-05-17 17.6 21.6 14.3 12.8 84.3- 8.0 1.0---- 0.5------------
1972-05-18 16.6 22.7 11.2 10.0 73.5- 6.3 0.3---- 0.0------------
1972-05-19 19.1 26.8 12.8 9.4 68.3- 6.7 2.7---- 0.0------------
1972-05-20 15.5 22.3 13.6 11.2 80.8- 5.3 2.7---- 4.4------------
1972-05-21 14.6 19.3 10.6 8.7 72.0- 7.3 2.0---- 0.0------------
1972-05-22 14.0 19.8 7.4 6.4 77.3- 7.3 0.3---- 0.5------------
1972-05-23 15.9 21.8 9.7 6.7 68.5- 6.7 2.0---- 0.0------------
1972-05-24 17.8 23.3 9.2 7.7 63.0- 3.3 1.0---- 0.0------------
1972-05-25 15.7 20.6 10.7 8.9 82.8- 7.7 1.0---- 1.8------------
1972-05-26 16.0 20.2 11.2 9.4 70.5- 7.7 1.7---- 3.6------------
1972-05-27 14.1 17.6 11.9 10.8 89.5- 8.0 1.7---- 1.9------------
1972-05-28 12.4 17.6 8.2 6.0 75.5- 3.0 2.3---- 1.4------------
1972-05-29 12.1 16.8 6.7 4.9 77.8- 7.0 1.3---- 0.0------------
1972-05-30 15.7 20.8 9.2 6.8 71.5- 7.3 2.0---- 0.6------------
1972-05-31 15.3 19.8 11.3 9.8 82.0- 7.3 0.0---- 3.2------------
1972-06-01 15.1 18.6 11.6 10.3 76.8- 8.0 0.3---- 0.5------------
1972-06-02 13.1 16.7 11.1 8.9 85.8- 8.0 1.0---- 0.2------------
1972-06-03 15.6 20.9 10.6 9.5 73.3- 6.3 0.7---- 0.0------------
1972-06-04 17.2 23.8 9.5 7.4 68.8- 3.7 3.0---- 0.0------------
1972-06-05 19.8 26.6 10.9 9.8 61.5- 2.3 4.0---- 0.0------------
1972-06-06 20.7 27.9 12.3 9.9 62.3- 2.0 3.7---- 0.0------------
1972-06-07 22.3 29.3 13.3 10.3 59.5- 3.7 1.0---- 0.0------------
1972-06-08 20.8 28.1 17.3 16.2 84.0- 8.0 1.7---- 13.6------------
1972-06-09 16.5 20.8 12.2 11.6 62.8- 3.7 3.3---- 0.0------------
1972-06-10 17.8 23.9 11.3 9.2 72.5- 7.0 0.7---- 0.0------------
1972-06-11 20.5 27.4 15.2 13.4 74.8- 5.7 1.3---- 0.0------------
1972-06-12 23.5 30.4 14.8 13.3 67.8- 6.3 1.7---- 0.3------------
1972-06-13 23.9 29.6 19.6 16.1 63.8- 6.0 1.7---- 0.0------------
183.0 ms

 

Źródłem pochodzenia danych jest Instytut Meteorologii i Gospodarki Wodnej – Państwowy Instytut Badawczy. Dane Instytutu Meteorologii i Gospodarki Wodnej – Państwowego Instytutu Badawczego zostały przetworzone.

Dane źródłowe można odnaleźć na stronie https://dane.imgw.pl